createdAt,value
2022-08-01T00:00:10.003Z,1.80
2022-08-01T00:02:41.280Z,1.80
2022-08-01T00:05:10.142Z,1.70
2022-08-01T00:07:37.695Z,2.03
2022-08-01T00:10:06.101Z,1.65
2022-08-01T00:12:33.349Z,1.85
2022-08-01T00:15:00.327Z,2.00
2022-08-01T00:17:27.240Z,1.60
2022-08-01T00:19:54.152Z,1.92
2022-08-01T00:22:21.102Z,2.00
2022-08-01T00:24:48.072Z,1.88
2022-08-01T00:27:15.137Z,1.90
2022-08-01T00:30:09.583Z,1.90
2022-08-01T00:32:32.138Z,1.88
2022-08-01T00:34:59.058Z,2.30
2022-08-01T00:37:26.026Z,1.83
2022-08-01T00:39:53.039Z,1.77
2022-08-01T00:42:20.115Z,1.75
2022-08-01T00:44:47.145Z,2.05
2022-08-01T00:47:14.205Z,1.88
2022-08-01T00:49:41.386Z,1.80
2022-08-01T00:52:10.019Z,2.20
2022-08-01T00:54:37.157Z,2.20
2022-08-01T00:57:05.539Z,1.95
2022-08-01T00:59:37.732Z,1.92
2022-08-01T01:02:14.966Z,1.90
2022-08-01T01:04:44.057Z,1.85
2022-08-01T01:07:32.057Z,1.42
2022-08-01T01:10:09.268Z,1.83
2022-08-01T01:13:02.280Z,2.17
2022-08-01T01:15:37.324Z,1.58
2022-08-01T01:18:12.379Z,1.98
2022-08-01T01:20:42.341Z,2.30
2022-08-01T01:23:45.178Z,1.83
2022-08-01T01:26:46.859Z,2.17
2022-08-01T01:30:00.516Z,1.73
2022-08-01T01:32:40.311Z,1.67
2022-08-01T01:35:11.777Z,1.77
2022-08-01T01:37:40.676Z,1.90
2022-08-01T01:40:10.509Z,2.13
2022-08-01T01:42:38.715Z,1.90
2022-08-01T01:45:07.921Z,1.70
2022-08-01T01:47:37.402Z,2.00
2022-08-01T01:50:05.781Z,1.90
2022-08-01T01:52:33.630Z,2.03
2022-08-01T01:55:02.634Z,2.00
2022-08-01T01:57:32.087Z,2.10
2022-08-01T02:00:00.413Z,1.80
2022-08-01T02:02:29.008Z,1.80
2022-08-01T02:04:57.153Z,1.80
2022-08-01T02:07:26.029Z,1.73
2022-08-01T02:09:54.671Z,1.63
2022-08-01T02:12:25.379Z,1.92
2022-08-01T02:14:54.621Z,1.90
2022-08-01T02:17:24.970Z,1.60
2022-08-01T02:19:53.633Z,1.90
2022-08-01T02:22:22.555Z,1.83
2022-08-01T02:25:12.066Z,1.60
2022-08-01T02:27:51.900Z,1.80
2022-08-01T02:30:20.476Z,2.00
2022-08-01T02:32:56.573Z,1.70
2022-08-01T02:35:32.913Z,2.28
2022-08-01T02:38:02.343Z,1.75
2022-08-01T02:40:33.788Z,1.70
2022-08-01T02:43:03.354Z,2.10
2022-08-01T02:45:31.727Z,2.15
2022-08-01T02:48:10.757Z,1.67
2022-08-01T02:50:38.472Z,2.10
2022-08-01T02:53:09.013Z,2.10
2022-08-01T02:55:37.876Z,1.60
2022-08-01T02:58:05.591Z,1.90
2022-08-01T03:00:34.295Z,1.90
2022-08-01T03:03:07.293Z,1.90
2022-08-01T03:05:36.000Z,2.20
2022-08-01T03:08:04.540Z,1.85
2022-08-01T03:10:41.264Z,1.60
2022-08-01T03:13:10.891Z,1.90
2022-08-01T03:15:41.280Z,1.60
2022-08-01T03:18:10.323Z,2.10
2022-08-01T03:20:37.653Z,1.63
2022-08-01T03:23:10.070Z,1.83
2022-08-01T03:25:40.662Z,1.50
2022-08-01T03:28:09.168Z,1.77
2022-08-01T03:30:38.982Z,1.70
2022-08-01T03:33:06.064Z,2.28
2022-08-01T03:35:43.555Z,1.77
2022-08-01T03:38:16.291Z,1.70
2022-08-01T03:40:50.573Z,2.10
2022-08-01T03:43:41.122Z,1.80
2022-08-01T03:46:12.474Z,1.70
2022-08-01T03:48:44.417Z,1.85
2022-08-01T03:51:13.400Z,2.20
2022-08-01T03:53:43.271Z,1.83
2022-08-01T03:56:11.324Z,1.90
2022-08-01T03:58:40.807Z,1.58
2022-08-01T04:01:15.326Z,1.55
2022-08-01T04:03:43.981Z,1.85
2022-08-01T04:06:11.653Z,1.75
2022-08-01T04:08:39.958Z,2.50
2022-08-01T04:11:08.899Z,1.80
2022-08-01T04:13:37.316Z,1.80
2022-08-01T04:16:05.783Z,1.92
2022-08-01T04:18:33.293Z,3.00
2022-08-01T04:21:00.247Z,2.13
2022-08-01T04:23:28.930Z,1.85
2022-08-01T04:25:57.971Z,1.73
2022-08-01T04:28:25.779Z,1.88
2022-08-01T04:31:01.256Z,1.58
2022-08-01T04:33:31.020Z,1.98
2022-08-01T04:36:04.235Z,2.10
2022-08-01T04:38:37.612Z,1.98
2022-08-01T04:41:08.976Z,2.15
2022-08-01T04:43:44.078Z,1.73
2022-08-01T04:46:12.919Z,1.92
2022-08-01T04:48:40.924Z,1.95
2022-08-01T04:51:18.346Z,2.10
2022-08-01T04:53:46.972Z,1.73
2022-08-01T04:56:14.710Z,1.63
2022-08-01T04:58:44.987Z,1.80
2022-08-01T05:01:12.613Z,1.80
2022-08-01T05:03:39.893Z,1.92
2022-08-01T05:06:07.017Z,2.13
2022-08-01T05:08:33.958Z,2.10
2022-08-01T05:11:02.205Z,1.75
2022-08-01T05:13:29.414Z,2.00
2022-08-01T05:15:56.500Z,2.05
2022-08-01T05:18:28.001Z,1.95
2022-08-01T05:20:55.838Z,1.80
2022-08-01T05:23:37.764Z,1.70
2022-08-01T05:26:10.277Z,1.88
2022-08-01T05:28:37.189Z,2.67
2022-08-01T05:31:04.904Z,2.10
2022-08-01T05:33:31.923Z,1.90
2022-08-01T05:35:59.043Z,2.40
2022-08-01T05:38:25.973Z,2.15
2022-08-01T05:40:53.004Z,2.28
2022-08-01T05:43:19.900Z,2.00
2022-08-01T05:45:47.331Z,2.65
2022-08-01T05:48:14.271Z,2.60
2022-08-01T05:50:41.265Z,2.20
2022-08-01T05:53:08.168Z,1.90
2022-08-01T05:55:36.278Z,2.30
2022-08-01T05:58:03.649Z,2.25
2022-08-01T06:00:30.596Z,2.53
2022-08-01T06:02:57.487Z,2.67
2022-08-01T06:05:24.606Z,2.75
2022-08-01T06:07:51.656Z,2.20
2022-08-01T06:10:18.685Z,2.25
2022-08-01T06:12:45.607Z,2.38
2022-08-01T06:15:12.781Z,2.00
2022-08-01T06:17:40.611Z,2.10
2022-08-01T06:20:08.320Z,1.90
2022-08-01T06:22:35.304Z,2.10
2022-08-01T06:25:02.491Z,2.60
2022-08-01T06:27:29.476Z,2.65
2022-08-01T06:29:57.551Z,2.75
2022-08-01T06:32:27.540Z,3.42
2022-08-01T06:34:56.361Z,3.67
2022-08-01T06:37:24.019Z,3.03
2022-08-01T06:39:51.142Z,3.17
2022-08-01T06:42:18.557Z,2.95
2022-08-01T06:44:45.924Z,3.38
2022-08-01T06:47:13.310Z,2.80
2022-08-01T06:49:40.322Z,3.63
2022-08-01T06:52:07.663Z,3.25
2022-08-01T06:54:34.914Z,3.03
2022-08-01T06:57:01.997Z,3.10
2022-08-01T06:59:28.917Z,3.10
2022-08-01T07:01:55.837Z,2.80
2022-08-01T07:04:22.896Z,2.60
2022-08-01T07:06:49.857Z,2.50
2022-08-01T07:09:16.810Z,2.47
2022-08-01T07:11:43.793Z,3.53
2022-08-01T07:14:10.761Z,2.88
2022-08-01T07:16:37.712Z,3.50
2022-08-01T07:19:04.648Z,2.80
2022-08-01T07:21:40.330Z,2.45
2022-08-01T07:24:13.821Z,3.17
2022-08-01T07:26:54.202Z,2.97
2022-08-01T07:29:28.319Z,3.33
2022-08-01T07:31:57.654Z,3.38
2022-08-01T07:34:26.289Z,2.92
2022-08-01T07:36:54.420Z,3.85
2022-08-01T07:39:21.792Z,4.07
2022-08-01T07:42:06.740Z,4.15
2022-08-01T07:44:36.229Z,3.85
2022-08-01T07:47:03.670Z,3.83
2022-08-01T07:49:31.151Z,3.95
2022-08-01T07:52:02.391Z,4.45
2022-08-01T07:54:33.846Z,4.05
2022-08-01T07:57:02.679Z,3.88
2022-08-01T07:59:29.591Z,4.20
2022-08-01T08:01:56.487Z,3.67
2022-08-01T08:04:23.410Z,4.03
2022-08-01T08:06:50.393Z,3.63
2022-08-01T08:09:17.484Z,4.43
2022-08-01T08:11:47.787Z,3.45
2022-08-01T08:14:16.755Z,3.60
2022-08-01T08:16:44.904Z,3.83
2022-08-01T08:19:12.453Z,2.78
2022-08-01T08:21:40.210Z,3.03
2022-08-01T08:24:27.453Z,3.00
2022-08-01T08:27:01.967Z,3.00
2022-08-01T08:29:31.726Z,3.05
2022-08-01T08:31:59.372Z,2.50
2022-08-01T08:34:28.541Z,2.60
2022-08-01T08:36:57.142Z,2.72
2022-08-01T08:39:26.766Z,3.50
2022-08-01T08:41:53.753Z,2.88
2022-08-01T08:44:21.266Z,3.08
2022-08-01T08:46:52.654Z,2.55
2022-08-01T08:49:22.828Z,2.53
2022-08-01T08:51:52.612Z,2.67
2022-08-01T08:54:28.889Z,2.50
2022-08-01T08:56:59.834Z,2.63
2022-08-01T08:59:27.427Z,2.40
2022-08-01T09:01:54.620Z,2.67
2022-08-01T09:04:26.413Z,3.10
2022-08-01T09:06:54.726Z,2.50
2022-08-01T09:09:21.674Z,2.42
2022-08-01T09:11:57.438Z,2.35
2022-08-01T09:14:28.194Z,2.10
2022-08-01T09:17:11.707Z,2.33
2022-08-01T09:19:52.256Z,2.30
2022-08-01T09:22:24.450Z,2.45
2022-08-01T09:25:07.513Z,2.45
2022-08-01T09:27:35.538Z,2.53
2022-08-01T09:30:28.518Z,2.63
2022-08-01T09:32:57.844Z,2.45
2022-08-01T09:35:29.911Z,2.22
2022-08-01T09:38:30.885Z,2.25
2022-08-01T09:40:59.974Z,2.20
2022-08-01T09:43:33.524Z,2.20
2022-08-01T09:46:05.862Z,2.60
2022-08-01T09:48:33.691Z,2.38
2022-08-01T09:51:07.249Z,2.35
2022-08-01T09:53:50.975Z,2.63
2022-08-01T09:56:19.689Z,2.33
2022-08-01T09:59:00.539Z,2.10
2022-08-01T10:01:48.609Z,2.10
2022-08-01T10:04:18.407Z,2.15
2022-08-01T10:06:53.294Z,2.30
2022-08-01T10:09:39.836Z,2.10
2022-08-01T10:12:08.662Z,2.28
2022-08-01T10:14:38.798Z,2.28
2022-08-01T10:17:19.436Z,2.53
2022-08-01T10:19:47.951Z,2.55
2022-08-01T10:22:18.945Z,2.00
2022-08-01T10:24:48.893Z,2.53
2022-08-01T10:27:24.293Z,2.80
2022-08-01T10:30:15.451Z,2.35
2022-08-01T10:32:53.188Z,2.35
2022-08-01T10:35:45.568Z,2.50
2022-08-01T10:38:13.480Z,2.22
2022-08-01T10:40:43.082Z,2.20
2022-08-01T10:43:21.492Z,2.20
2022-08-01T10:45:50.199Z,2.30
2022-08-01T10:48:40.497Z,2.50
2022-08-01T10:51:17.806Z,2.35
2022-08-01T10:53:56.109Z,2.80
2022-08-01T10:56:26.918Z,2.58
2022-08-01T10:59:06.231Z,2.97
2022-08-01T11:01:37.380Z,2.97
2022-08-01T11:04:16.995Z,2.58
2022-08-01T11:06:51.523Z,2.60
2022-08-01T11:12:38.390Z,2.80
2022-08-01T11:15:08.334Z,2.90
2022-08-01T11:17:54.946Z,2.40
2022-08-01T11:20:21.952Z,3.08
2022-08-01T11:23:03.572Z,2.50
2022-08-01T11:26:06.786Z,2.70
2022-08-01T11:28:32.518Z,2.80
2022-08-01T11:31:13.751Z,2.80
2022-08-01T11:33:46.029Z,2.90
2022-08-01T11:36:14.491Z,2.70
2022-08-01T11:38:45.839Z,2.60
2022-08-01T11:41:14.268Z,2.50
2022-08-01T11:43:57.841Z,2.85
2022-08-01T11:46:51.091Z,2.90
2022-08-01T11:49:45.349Z,3.25
2022-08-01T11:52:34.555Z,2.90
2022-08-01T11:55:04.651Z,3.05
2022-08-01T11:57:36.912Z,3.25
2022-08-01T12:00:19.958Z,2.58
2022-08-01T12:03:01.548Z,2.92
2022-08-01T12:05:34.764Z,2.72
2022-08-01T12:08:02.608Z,2.45
2022-08-01T12:10:49.881Z,2.60
2022-08-01T12:13:19.235Z,2.40
2022-08-01T12:15:47.421Z,2.50
2022-08-01T12:18:14.790Z,2.72
2022-08-01T12:20:56.281Z,2.35
2022-08-01T12:23:24.266Z,2.92
2022-08-01T12:25:54.642Z,2.22
2022-08-01T12:28:21.866Z,2.60
2022-08-01T12:30:49.726Z,2.30
2022-08-01T12:33:19.957Z,2.50
2022-08-01T12:35:46.981Z,2.60
2022-08-01T12:38:19.877Z,2.58
2022-08-01T12:40:51.577Z,2.20
2022-08-01T12:45:59.711Z,2.47
2022-08-01T12:48:27.800Z,2.60
2022-08-01T12:50:58.573Z,2.17
2022-08-01T12:53:26.951Z,2.05
2022-08-01T12:56:06.953Z,3.00
2022-08-01T12:58:34.695Z,1.70
2022-08-01T13:01:10.494Z,2.00
2022-08-01T13:03:38.177Z,1.95
2022-08-01T13:06:17.614Z,2.45
2022-08-01T13:08:46.029Z,2.10
2022-08-01T13:11:15.814Z,2.05
2022-08-01T13:13:49.853Z,1.80
2022-08-01T13:16:30.522Z,2.53
2022-08-01T13:19:06.686Z,1.70
2022-08-01T13:21:53.031Z,1.95
2022-08-01T13:24:29.048Z,1.95
2022-08-01T13:27:05.040Z,2.10
2022-08-01T13:29:45.459Z,2.08
2022-08-01T13:32:29.733Z,1.70
2022-08-01T13:35:07.021Z,1.90
2022-08-01T13:37:35.096Z,1.67
2022-08-01T13:40:04.747Z,1.50
2022-08-01T13:42:32.890Z,1.92
2022-08-01T13:44:59.901Z,1.70
2022-08-01T13:47:31.457Z,1.58
2022-08-01T13:50:03.360Z,1.50
2022-08-01T13:52:31.658Z,1.80
2022-08-01T13:54:58.968Z,2.03
2022-08-01T13:57:26.138Z,1.60
2022-08-01T14:00:06.719Z,1.75
2022-08-01T14:02:38.950Z,2.03
2022-08-01T14:05:06.652Z,1.70
2022-08-01T14:07:33.508Z,1.85
2022-08-01T14:10:05.115Z,1.77
2022-08-01T14:12:46.088Z,2.00
2022-08-01T14:15:15.090Z,1.58
2022-08-01T14:18:02.115Z,1.50
2022-08-01T14:20:29.370Z,1.55
2022-08-01T14:22:58.806Z,2.10
2022-08-01T14:26:03.205Z,1.70
2022-08-01T14:28:12.578Z,2.10
2022-08-01T14:30:39.628Z,1.90
2022-08-01T14:33:06.931Z,1.92
2022-08-01T14:36:03.531Z,1.70
2022-08-01T14:38:30.548Z,1.45
2022-08-01T14:41:00.372Z,1.92
2022-08-01T14:43:32.765Z,1.80
2022-08-01T14:46:01.582Z,1.77
2022-08-01T14:48:28.504Z,1.92
2022-08-01T14:50:57.942Z,1.80
2022-08-01T14:53:24.894Z,1.60
2022-08-01T14:55:51.962Z,1.95
2022-08-01T14:58:19.039Z,1.77
2022-08-01T15:00:46.462Z,1.83
2022-08-01T15:03:13.605Z,1.50
2022-08-01T15:05:40.563Z,1.70
2022-08-01T15:08:07.778Z,1.70
2022-08-01T15:10:34.716Z,1.40
2022-08-01T15:13:02.566Z,1.65
2022-08-01T15:15:29.742Z,1.70
2022-08-01T15:17:57.205Z,1.45
2022-08-01T15:20:24.629Z,1.40
2022-08-01T15:22:51.595Z,1.63
2022-08-01T15:25:18.514Z,1.48
2022-08-01T15:27:45.456Z,1.48
2022-08-01T15:30:13.119Z,1.58
2022-08-01T15:32:40.185Z,1.60
2022-08-01T15:35:07.871Z,1.45
2022-08-01T15:37:38.430Z,1.63
2022-08-01T15:40:08.437Z,1.40
2022-08-01T15:42:35.982Z,1.65
2022-08-01T15:45:02.980Z,1.60
2022-08-01T15:47:31.355Z,1.52
2022-08-01T15:50:00.516Z,1.60
2022-08-01T15:52:31.572Z,1.83
2022-08-01T15:54:58.798Z,2.15
2022-08-01T15:57:25.807Z,1.75
2022-08-01T15:59:52.772Z,1.60
2022-08-01T16:02:19.950Z,1.88
2022-08-01T16:04:46.890Z,1.80
2022-08-01T16:07:13.880Z,1.83
2022-08-01T16:09:40.899Z,1.80
2022-08-01T16:12:08.962Z,2.00
2022-08-01T16:14:36.155Z,1.80
2022-08-01T16:17:03.109Z,2.28
2022-08-01T16:19:30.028Z,1.70
2022-08-01T16:21:56.989Z,1.85
2022-08-01T16:24:24.056Z,1.80
2022-08-01T16:26:51.023Z,1.25
2022-08-01T16:29:18.369Z,1.60
2022-08-01T16:32:03.926Z,1.60
2022-08-01T16:34:32.860Z,1.45
2022-08-01T16:37:00.007Z,1.55
2022-08-01T16:39:27.156Z,1.45
2022-08-01T16:41:54.886Z,1.30
2022-08-01T16:44:33.791Z,1.95
2022-08-01T16:47:03.236Z,1.55
2022-08-01T16:49:31.978Z,1.50
2022-08-01T16:51:59.513Z,1.35
2022-08-01T16:54:26.759Z,1.80
2022-08-01T16:56:54.695Z,1.48
2022-08-01T16:59:23.207Z,1.48
2022-08-01T17:01:58.425Z,1.70
2022-08-01T17:04:29.052Z,1.80
2022-08-01T17:06:56.365Z,1.60
2022-08-01T17:09:23.476Z,1.80
2022-08-01T17:11:50.431Z,1.60
2022-08-01T17:14:17.953Z,2.33
2022-08-01T17:16:45.292Z,1.90
2022-08-01T17:19:12.302Z,1.63
2022-08-01T17:21:42.211Z,2.00
2022-08-01T17:24:09.768Z,1.70
2022-08-01T17:26:36.713Z,1.70
2022-08-01T17:29:03.976Z,1.73
2022-08-01T17:31:30.978Z,1.70
2022-08-01T17:33:57.882Z,1.70
2022-08-01T17:36:24.765Z,1.80
2022-08-01T17:38:51.821Z,1.65
2022-08-01T17:41:18.947Z,1.67
2022-08-01T17:43:45.907Z,1.40
2022-08-01T17:46:12.883Z,1.65
2022-08-01T17:48:40.128Z,1.60
2022-08-01T17:51:06.999Z,1.88
2022-08-01T17:53:33.956Z,1.90
2022-08-01T17:56:02.530Z,2.08
2022-08-01T17:58:49.788Z,1.67
2022-08-01T18:01:18.415Z,1.80
2022-08-01T18:03:46.008Z,2.40
2022-08-01T18:06:17.352Z,2.55
2022-08-01T18:08:46.978Z,2.92
2022-08-01T18:11:15.666Z,2.83
2022-08-01T18:13:43.363Z,2.30
2022-08-01T18:16:12.977Z,2.67
2022-08-01T18:18:41.958Z,2.03
2022-08-01T18:21:09.233Z,2.00
2022-08-01T18:23:36.368Z,2.05
2022-08-01T18:26:06.990Z,2.00
2022-08-01T18:28:41.718Z,2.22
2022-08-01T18:31:14.217Z,2.20
2022-08-01T18:33:41.097Z,1.88
2022-08-01T18:36:09.780Z,2.10
2022-08-01T18:38:45.256Z,1.83
2022-08-01T18:41:14.066Z,1.85
2022-08-01T18:43:41.357Z,2.58
2022-08-01T18:46:08.417Z,2.20
2022-08-01T18:48:35.448Z,2.25
2022-08-01T18:51:02.346Z,1.83
2022-08-01T18:53:29.280Z,2.03
2022-08-01T18:55:56.379Z,2.10
2022-08-01T18:58:23.650Z,2.10
2022-08-01T19:00:50.935Z,1.98
2022-08-01T19:03:20.554Z,2.30
2022-08-01T19:05:49.373Z,2.65
2022-08-01T19:08:16.345Z,1.92
2022-08-01T19:10:43.434Z,1.88
2022-08-01T19:13:10.476Z,2.15
2022-08-01T19:15:37.343Z,2.13
2022-08-01T19:18:04.545Z,2.28
2022-08-01T19:20:31.829Z,2.10
2022-08-01T19:22:58.859Z,1.85
2022-08-01T19:25:26.461Z,1.88
2022-08-01T19:27:56.280Z,2.20
2022-08-01T19:30:23.534Z,1.90
2022-08-01T19:32:54.299Z,1.90
2022-08-01T19:35:22.933Z,1.90
2022-08-01T19:37:52.541Z,1.90
2022-08-01T19:40:27.839Z,2.35
2022-08-01T19:42:56.939Z,2.00
2022-08-01T19:45:28.478Z,1.60
2022-08-01T19:47:57.773Z,2.05
2022-08-01T19:50:26.826Z,1.40
2022-08-01T19:52:55.444Z,2.10
2022-08-01T19:55:24.204Z,1.85
2022-08-01T19:58:17.397Z,1.70
2022-08-01T20:00:40.594Z,1.85
2022-08-01T20:03:09.591Z,1.50
2022-08-01T20:05:38.701Z,2.03
2022-08-01T20:08:07.106Z,1.92
2022-08-01T20:10:37.480Z,2.00
2022-08-01T20:13:05.402Z,1.60
2022-08-01T20:15:32.620Z,1.83
2022-08-01T20:18:00.478Z,1.80
2022-08-01T20:20:27.762Z,1.83
2022-08-01T20:22:57.381Z,1.52
2022-08-01T20:25:33.622Z,1.70
2022-08-01T20:28:10.960Z,1.55
2022-08-01T20:30:40.438Z,1.48
2022-08-01T20:33:08.719Z,1.63
2022-08-01T20:35:51.079Z,1.50
2022-08-01T20:38:27.835Z,1.73
2022-08-01T20:40:59.192Z,1.50
2022-08-01T20:43:27.641Z,1.75
2022-08-01T20:45:56.054Z,1.67
2022-08-01T20:48:25.788Z,1.70
2022-08-01T20:51:11.824Z,1.50
2022-08-01T20:53:43.388Z,2.08
2022-08-01T20:56:37.345Z,1.92
2022-08-01T20:59:56.055Z,1.70
2022-08-01T21:02:47.936Z,1.63
2022-08-01T21:05:41.138Z,1.63
2022-08-01T21:08:24.275Z,1.55
2022-08-01T21:10:57.470Z,1.40
2022-08-01T21:13:40.472Z,1.40
2022-08-01T21:16:23.617Z,1.60
2022-08-01T21:21:53.673Z,1.30
2022-08-01T21:24:26.300Z,1.45
2022-08-01T21:26:54.944Z,1.63
2022-08-01T21:29:24.193Z,1.52
2022-08-01T21:32:11.446Z,1.20
2022-08-01T21:34:39.655Z,1.83
2022-08-01T21:37:10.157Z,1.50
2022-08-01T21:39:38.272Z,2.08
2022-08-01T21:42:09.197Z,1.38
2022-08-01T21:44:39.691Z,1.33
2022-08-01T21:47:11.653Z,1.55
2022-08-01T21:49:40.589Z,1.77
2022-08-01T21:52:18.252Z,1.70
2022-08-01T21:55:17.962Z,1.80
2022-08-01T21:58:05.597Z,1.50
2022-08-01T22:00:36.409Z,1.40
2022-08-01T22:03:26.353Z,1.50
2022-08-01T22:05:54.891Z,1.52
2022-08-01T22:08:28.967Z,1.73
2022-08-01T22:10:59.848Z,1.77
2022-08-01T22:13:26.950Z,1.80
2022-08-01T22:15:56.852Z,1.65
2022-08-01T22:18:25.788Z,1.23
2022-08-01T22:20:54.029Z,1.48
2022-08-01T22:23:22.875Z,1.67
2022-08-01T22:25:54.464Z,1.60
2022-08-01T22:28:22.380Z,1.80
2022-08-01T22:30:51.388Z,1.60
2022-08-01T22:33:18.649Z,1.52
2022-08-01T22:35:52.650Z,1.67
2022-08-01T22:38:22.446Z,1.40
2022-08-01T22:40:58.576Z,1.40
2022-08-01T22:43:46.049Z,1.83
2022-08-01T22:46:28.093Z,1.73
2022-08-01T22:49:11.742Z,1.73
2022-08-01T22:51:54.973Z,1.67
2022-08-01T22:54:30.076Z,1.80
2022-08-01T22:57:00.520Z,1.70
2022-08-01T22:59:42.352Z,1.40
2022-08-01T23:02:14.736Z,1.70
2022-08-01T23:04:49.905Z,1.80
2022-08-01T23:07:23.543Z,1.40
2022-08-01T23:09:55.447Z,1.50
2022-08-01T23:12:27.574Z,1.80
2022-08-01T23:14:57.331Z,1.45
2022-08-01T23:17:30.123Z,1.50
2022-08-01T23:20:03.181Z,1.50
2022-08-01T23:22:32.225Z,1.50
2022-08-01T23:25:04.617Z,1.80
2022-08-01T23:28:03.286Z,1.50
2022-08-01T23:30:34.173Z,1.35
2022-08-01T23:33:01.985Z,1.70
2022-08-01T23:35:29.952Z,1.40
2022-08-01T23:38:01.996Z,1.45
2022-08-01T23:40:50.042Z,1.73
2022-08-01T23:43:17.923Z,1.50
2022-08-01T23:46:04.371Z,1.40
2022-08-01T23:48:33.975Z,1.60
2022-08-01T23:51:01.165Z,1.70
2022-08-01T23:53:30.449Z,1.50
2022-08-01T23:55:58.841Z,1.63
2022-08-01T23:58:25.839Z,1.20
